Upland, California
Current Conditions -  °F | °C
As of 12:53 AM on Sunday 21 Dec 2014 (Local Time) from KONT Reporting Station
Haze Haze  
Wind Chill: 45°   Ceiling: Unl
Heat Index: 48°   Visibility: 6mi
Dew Point: 44°   Wind: 6mph
Humidity: 86%   Direction: 30°NNE
Pressure: 30.16"   Gusts: NA
Location:  34.1°N, 117.65°W
Report Text: KONT 210853Z 03005KT 6SM BR CLR 09/07 A3016 RMK AO2 SLP211 T00890067 50001
Loading
Personal Weather Stations






























Interactive Weather Map New forecast layout! Learn more

10-Day Weather Forecast

Advertisements
Track Severe Weather on mobile